sensor_id;sensor_type;location;lat;lon;timestamp;P1;durP1;ratioP1;P2;durP2;ratioP2
35150;SDS011;55720;51.972;4.624;2023-03-17T00:00:33;7.30;;;2.72;;
35150;SDS011;55720;51.972;4.624;2023-03-17T00:02:59;3.67;;;2.63;;
35150;SDS011;55720;51.972;4.624;2023-03-17T00:05:30;2.72;;;2.45;;
35150;SDS011;55720;51.972;4.624;2023-03-17T00:08:03;6.60;;;2.53;;
35150;SDS011;55720;51.972;4.624;2023-03-17T00:10:34;4.20;;;2.85;;
35150;SDS011;55720;51.972;4.624;2023-03-17T00:13:00;5.65;;;2.50;;
35150;SDS011;55720;51.972;4.624;2023-03-17T00:15:26;3.83;;;2.38;;
35150;SDS011;55720;51.972;4.624;2023-03-17T00:17:53;4.95;;;2.47;;
35150;SDS011;55720;51.972;4.624;2023-03-17T00:22:56;3.13;;;2.45;;
35150;SDS011;55720;51.972;4.624;2023-03-17T00:25:25;3.28;;;2.95;;
35150;SDS011;55720;51.972;4.624;2023-03-17T00:27:53;3.53;;;2.80;;
35150;SDS011;55720;51.972;4.624;2023-03-17T00:30:20;6.30;;;2.65;;
35150;SDS011;55720;51.972;4.624;2023-03-17T00:32:47;3.75;;;2.33;;
35150;SDS011;55720;51.972;4.624;2023-03-17T00:35:17;4.90;;;2.75;;
35150;SDS011;55720;51.972;4.624;2023-03-17T00:40:15;3.72;;;2.47;;
35150;SDS011;55720;51.972;4.624;2023-03-17T00:42:42;3.33;;;2.47;;
35150;SDS011;55720;51.972;4.624;2023-03-17T00:45:09;2.70;;;2.40;;
35150;SDS011;55720;51.972;4.624;2023-03-17T00:47:35;6.72;;;2.72;;
35150;SDS011;55720;51.972;4.624;2023-03-17T00:50:02;4.07;;;2.55;;
35150;SDS011;55720;51.972;4.624;2023-03-17T00:52:28;3.05;;;2.75;;
35150;SDS011;55720;51.972;4.624;2023-03-17T00:54:54;4.10;;;2.22;;
35150;SDS011;55720;51.972;4.624;2023-03-17T00:57:19;5.18;;;2.70;;
35150;SDS011;55720;51.972;4.624;2023-03-17T00:59:45;2.60;;;2.38;;
35150;SDS011;55720;51.972;4.624;2023-03-17T01:02:11;4.05;;;2.40;;
35150;SDS011;55720;51.972;4.624;2023-03-17T01:04:37;4.88;;;2.40;;
35150;SDS011;55720;51.972;4.624;2023-03-17T01:07:04;3.63;;;2.90;;
35150;SDS011;55720;51.972;4.624;2023-03-17T01:09:29;4.35;;;2.30;;
35150;SDS011;55720;51.972;4.624;2023-03-17T01:11:55;2.53;;;2.33;;
35150;SDS011;55720;51.972;4.624;2023-03-17T01:14:21;3.67;;;2.20;;
35150;SDS011;55720;51.972;4.624;2023-03-17T01:16:50;4.25;;;2.20;;
35150;SDS011;55720;51.972;4.624;2023-03-17T01:19:19;3.88;;;2.47;;
35150;SDS011;55720;51.972;4.624;2023-03-17T01:21:46;4.20;;;2.30;;
35150;SDS011;55720;51.972;4.624;2023-03-17T01:24:12;3.83;;;2.25;;
35150;SDS011;55720;51.972;4.624;2023-03-17T01:26:38;3.58;;;2.70;;
35150;SDS011;55720;51.972;4.624;2023-03-17T01:29:04;2.75;;;2.47;;
35150;SDS011;55720;51.972;4.624;2023-03-17T01:31:31;4.20;;;2.58;;
35150;SDS011;55720;51.972;4.624;2023-03-17T01:33:57;2.95;;;2.10;;
35150;SDS011;55720;51.972;4.624;2023-03-17T01:36:22;3.75;;;2.28;;
35150;SDS011;55720;51.972;4.624;2023-03-17T01:38:48;4.60;;;2.35;;
35150;SDS011;55720;51.972;4.624;2023-03-17T01:41:15;5.57;;;2.25;;
35150;SDS011;55720;51.972;4.624;2023-03-17T01:43:47;2.67;;;2.15;;
35150;SDS011;55720;51.972;4.624;2023-03-17T01:49:06;5.75;;;2.10;;
35150;SDS011;55720;51.972;4.624;2023-03-17T01:51:42;3.53;;;2.30;;
35150;SDS011;55720;51.972;4.624;2023-03-17T01:54:37;5.22;;;2.35;;
35150;SDS011;55720;51.972;4.624;2023-03-17T01:57:22;7.30;;;3.25;;
35150;SDS011;55720;51.972;4.624;2023-03-17T02:00:04;3.03;;;2.25;;
35150;SDS011;55720;51.972;4.624;2023-03-17T02:02:34;4.93;;;2.35;;
35150;SDS011;55720;51.972;4.624;2023-03-17T02:05:03;3.83;;;2.20;;
35150;SDS011;55720;51.972;4.624;2023-03-17T02:07:31;2.28;;;1.85;;
35150;SDS011;55720;51.972;4.624;2023-03-17T02:09:57;3.13;;;2.17;;
35150;SDS011;55720;51.972;4.624;2023-03-17T02:12:23;7.80;;;2.05;;
35150;SDS011;55720;51.972;4.624;2023-03-17T02:14:50;3.58;;;2.30;;
35150;SDS011;55720;51.972;4.624;2023-03-17T02:17:17;2.88;;;2.03;;
35150;SDS011;55720;51.972;4.624;2023-03-17T02:19:43;3.33;;;2.17;;
35150;SDS011;55720;51.972;4.624;2023-03-17T02:22:10;4.80;;;1.80;;
35150;SDS011;55720;51.972;4.624;2023-03-17T02:24:45;2.58;;;2.17;;
35150;SDS011;55720;51.972;4.624;2023-03-17T02:27:16;2.60;;;2.17;;
35150;SDS011;55720;51.972;4.624;2023-03-17T02:29:45;3.13;;;2.42;;
35150;SDS011;55720;51.972;4.624;2023-03-17T02:32:12;2.75;;;2.25;;
35150;SDS011;55720;51.972;4.624;2023-03-17T02:34:39;2.33;;;1.70;;
35150;SDS011;55720;51.972;4.624;2023-03-17T02:37:04;1.90;;;1.70;;
35150;SDS011;55720;51.972;4.624;2023-03-17T02:39:31;4.15;;;1.95;;
35150;SDS011;55720;51.972;4.624;2023-03-17T02:41:58;3.88;;;1.88;;
35150;SDS011;55720;51.972;4.624;2023-03-17T02:44:23;2.55;;;2.03;;
35150;SDS011;55720;51.972;4.624;2023-03-17T02:46:49;3.78;;;2.45;;
35150;SDS011;55720;51.972;4.624;2023-03-17T02:49:14;4.82;;;2.33;;
35150;SDS011;55720;51.972;4.624;2023-03-17T02:51:40;3.38;;;2.10;;
35150;SDS011;55720;51.972;4.624;2023-03-17T02:54:05;3.35;;;2.10;;
35150;SDS011;55720;51.972;4.624;2023-03-17T02:56:31;4.00;;;1.90;;
35150;SDS011;55720;51.972;4.624;2023-03-17T02:58:56;2.35;;;2.15;;
35150;SDS011;55720;51.972;4.624;2023-03-17T03:01:22;3.05;;;2.20;;
35150;SDS011;55720;51.972;4.624;2023-03-17T03:03:47;3.95;;;2.05;;
35150;SDS011;55720;51.972;4.624;2023-03-17T03:06:13;2.92;;;2.17;;
35150;SDS011;55720;51.972;4.624;2023-03-17T03:08:39;2.03;;;1.83;;
35150;SDS011;55720;51.972;4.624;2023-03-17T03:11:04;2.85;;;2.10;;
35150;SDS011;55720;51.972;4.624;2023-03-17T03:13:30;2.40;;;2.00;;
35150;SDS011;55720;51.972;4.624;2023-03-17T03:15:55;4.70;;;1.85;;
35150;SDS011;55720;51.972;4.624;2023-03-17T03:18:21;2.63;;;1.88;;
35150;SDS011;55720;51.972;4.624;2023-03-17T03:20:46;2.72;;;2.00;;
35150;SDS011;55720;51.972;4.624;2023-03-17T03:23:12;7.97;;;2.47;;
35150;SDS011;55720;51.972;4.624;2023-03-17T03:25:38;2.10;;;1.90;;
35150;SDS011;55720;51.972;4.624;2023-03-17T03:28:05;2.53;;;1.80;;
35150;SDS011;55720;51.972;4.624;2023-03-17T03:30:33;2.72;;;2.15;;
35150;SDS011;55720;51.972;4.624;2023-03-17T03:33:00;7.10;;;2.38;;
35150;SDS011;55720;51.972;4.624;2023-03-17T03:35:26;3.42;;;2.10;;
35150;SDS011;55720;51.972;4.624;2023-03-17T03:37:52;3.38;;;1.90;;
35150;SDS011;55720;51.972;4.624;2023-03-17T03:40:17;3.33;;;1.90;;
35150;SDS011;55720;51.972;4.624;2023-03-17T03:42:43;4.20;;;2.17;;
35150;SDS011;55720;51.972;4.624;2023-03-17T03:45:08;2.17;;;1.92;;
35150;SDS011;55720;51.972;4.624;2023-03-17T03:47:34;3.50;;;1.98;;
35150;SDS011;55720;51.972;4.624;2023-03-17T03:49:59;2.75;;;2.15;;
35150;SDS011;55720;51.972;4.624;2023-03-17T03:52:25;2.35;;;1.95;;
35150;SDS011;55720;51.972;4.624;2023-03-17T03:54:50;2.40;;;2.15;;
35150;SDS011;55720;51.972;4.624;2023-03-17T03:57:16;4.93;;;1.80;;
35150;SDS011;55720;51.972;4.624;2023-03-17T03:59:41;4.10;;;2.03;;
35150;SDS011;55720;51.972;4.624;2023-03-17T04:02:06;3.83;;;2.17;;
35150;SDS011;55720;51.972;4.624;2023-03-17T04:04:32;2.70;;;2.08;;
35150;SDS011;55720;51.972;4.624;2023-03-17T04:06:57;6.32;;;2.38;;
35150;SDS011;55720;51.972;4.624;2023-03-17T04:09:23;3.42;;;2.28;;
35150;SDS011;55720;51.972;4.624;2023-03-17T04:11:48;2.40;;;1.83;;
35150;SDS011;55720;51.972;4.624;2023-03-17T04:14:14;2.10;;;1.90;;
35150;SDS011;55720;51.972;4.624;2023-03-17T04:16:39;2.40;;;1.58;;
35150;SDS011;55720;51.972;4.624;2023-03-17T04:19:05;2.20;;;1.98;;
35150;SDS011;55720;51.972;4.624;2023-03-17T04:21:30;3.97;;;2.30;;
35150;SDS011;55720;51.972;4.624;2023-03-17T04:23:56;4.50;;;2.15;;
35150;SDS011;55720;51.972;4.624;2023-03-17T04:26:21;5.85;;;1.92;;
35150;SDS011;55720;51.972;4.624;2023-03-17T04:28:47;2.45;;;2.22;;
35150;SDS011;55720;51.972;4.624;2023-03-17T04:31:13;2.13;;;1.92;;
35150;SDS011;55720;51.972;4.624;2023-03-17T04:33:39;2.78;;;1.80;;
35150;SDS011;55720;51.972;4.624;2023-03-17T04:36:05;2.67;;;2.05;;
35150;SDS011;55720;51.972;4.624;2023-03-17T04:38:31;3.60;;;1.85;;
35150;SDS011;55720;51.972;4.624;2023-03-17T04:40:57;4.75;;;2.30;;
35150;SDS011;55720;51.972;4.624;2023-03-17T04:43:22;2.00;;;1.73;;
35150;SDS011;55720;51.972;4.624;2023-03-17T04:45:48;6.18;;;2.50;;
35150;SDS011;55720;51.972;4.624;2023-03-17T04:48:33;2.38;;;1.88;;
35150;SDS011;55720;51.972;4.624;2023-03-17T04:51:00;2.50;;;2.13;;
35150;SDS011;55720;51.972;4.624;2023-03-17T04:53:25;2.03;;;1.83;;
35150;SDS011;55720;51.972;4.624;2023-03-17T04:55:51;2.95;;;2.28;;
35150;SDS011;55720;51.972;4.624;2023-03-17T04:58:16;5.25;;;2.53;;
35150;SDS011;55720;51.972;4.624;2023-03-17T05:00:42;3.72;;;2.00;;
35150;SDS011;55720;51.972;4.624;2023-03-17T05:03:07;6.18;;;2.40;;
35150;SDS011;55720;51.972;4.624;2023-03-17T05:05:33;3.58;;;1.80;;
35150;SDS011;55720;51.972;4.624;2023-03-17T05:07:58;4.35;;;1.75;;
35150;SDS011;55720;51.972;4.624;2023-03-17T05:10:24;3.38;;;1.77;;
35150;SDS011;55720;51.972;4.624;2023-03-17T05:12:49;5.10;;;1.70;;
35150;SDS011;55720;51.972;4.624;2023-03-17T05:15:15;1.73;;;1.60;;
35150;SDS011;55720;51.972;4.624;2023-03-17T05:17:40;3.65;;;1.98;;
35150;SDS011;55720;51.972;4.624;2023-03-17T05:20:06;3.58;;;1.77;;
35150;SDS011;55720;51.972;4.624;2023-03-17T05:22:33;5.20;;;2.20;;
35150;SDS011;55720;51.972;4.624;2023-03-17T05:24:58;3.65;;;2.00;;
35150;SDS011;55720;51.972;4.624;2023-03-17T05:27:24;3.80;;;1.63;;
35150;SDS011;55720;51.972;4.624;2023-03-17T05:29:50;2.38;;;1.90;;
35150;SDS011;55720;51.972;4.624;2023-03-17T05:32:15;2.70;;;2.13;;
35150;SDS011;55720;51.972;4.624;2023-03-17T05:34:41;2.97;;;2.03;;
35150;SDS011;55720;51.972;4.624;2023-03-17T05:37:06;2.78;;;2.28;;
35150;SDS011;55720;51.972;4.624;2023-03-17T05:39:31;3.00;;;1.98;;
35150;SDS011;55720;51.972;4.624;2023-03-17T05:41:57;2.90;;;2.08;;
35150;SDS011;55720;51.972;4.624;2023-03-17T05:44:22;3.08;;;2.30;;
35150;SDS011;55720;51.972;4.624;2023-03-17T05:46:48;4.82;;;2.03;;
35150;SDS011;55720;51.972;4.624;2023-03-17T05:49:14;3.63;;;2.50;;
35150;SDS011;55720;51.972;4.624;2023-03-17T05:51:39;3.90;;;2.25;;
35150;SDS011;55720;51.972;4.624;2023-03-17T05:54:06;2.22;;;2.03;;
35150;SDS011;55720;51.972;4.624;2023-03-17T05:56:32;2.97;;;2.35;;
35150;SDS011;55720;51.972;4.624;2023-03-17T05:58:59;8.95;;;2.50;;
35150;SDS011;55720;51.972;4.624;2023-03-17T06:01:25;5.97;;;2.42;;
35150;SDS011;55720;51.972;4.624;2023-03-17T06:03:51;4.60;;;2.22;;
35150;SDS011;55720;51.972;4.624;2023-03-17T06:06:17;5.60;;;2.30;;
35150;SDS011;55720;51.972;4.624;2023-03-17T06:08:42;4.57;;;2.25;;
35150;SDS011;55720;51.972;4.624;2023-03-17T06:11:08;3.55;;;2.05;;
35150;SDS011;55720;51.972;4.624;2023-03-17T06:13:34;5.88;;;2.10;;
35150;SDS011;55720;51.972;4.624;2023-03-17T06:15:59;2.90;;;2.20;;
35150;SDS011;55720;51.972;4.624;2023-03-17T06:18:24;4.15;;;2.28;;
35150;SDS011;55720;51.972;4.624;2023-03-17T06:20:50;3.55;;;2.40;;
35150;SDS011;55720;51.972;4.624;2023-03-17T06:23:15;3.08;;;2.40;;
35150;SDS011;55720;51.972;4.624;2023-03-17T06:25:42;3.85;;;2.08;;
35150;SDS011;55720;51.972;4.624;2023-03-17T06:28:08;3.65;;;2.30;;
35150;SDS011;55720;51.972;4.624;2023-03-17T06:30:34;2.88;;;2.10;;
35150;SDS011;55720;51.972;4.624;2023-03-17T06:33:01;4.35;;;2.03;;
35150;SDS011;55720;51.972;4.624;2023-03-17T06:35:27;4.32;;;2.28;;
35150;SDS011;55720;51.972;4.624;2023-03-17T06:37:54;4.13;;;1.90;;
35150;SDS011;55720;51.972;4.624;2023-03-17T06:40:19;4.65;;;2.33;;
35150;SDS011;55720;51.972;4.624;2023-03-17T06:42:45;4.65;;;2.10;;
35150;SDS011;55720;51.972;4.624;2023-03-17T06:45:10;3.78;;;2.22;;
35150;SDS011;55720;51.972;4.624;2023-03-17T06:47:36;5.07;;;1.90;;
35150;SDS011;55720;51.972;4.624;2023-03-17T06:50:02;3.13;;;1.95;;
35150;SDS011;55720;51.972;4.624;2023-03-17T06:52:28;5.32;;;2.55;;
35150;SDS011;55720;51.972;4.624;2023-03-17T06:54:54;3.67;;;2.33;;
35150;SDS011;55720;51.972;4.624;2023-03-17T06:57:19;4.32;;;2.28;;
35150;SDS011;55720;51.972;4.624;2023-03-17T06:59:45;6.72;;;2.35;;
35150;SDS011;55720;51.972;4.624;2023-03-17T07:02:11;6.57;;;2.80;;
35150;SDS011;55720;51.972;4.624;2023-03-17T07:04:36;2.53;;;2.08;;
35150;SDS011;55720;51.972;4.624;2023-03-17T07:07:03;5.13;;;2.00;;
35150;SDS011;55720;51.972;4.624;2023-03-17T07:09:29;5.20;;;2.50;;
35150;SDS011;55720;51.972;4.624;2023-03-17T07:11:57;3.25;;;1.95;;
35150;SDS011;55720;51.972;4.624;2023-03-17T07:14:23;6.10;;;2.10;;
35150;SDS011;55720;51.972;4.624;2023-03-17T07:16:48;3.85;;;2.25;;
35150;SDS011;55720;51.972;4.624;2023-03-17T07:19:14;3.28;;;2.50;;
35150;SDS011;55720;51.972;4.624;2023-03-17T07:21:40;3.38;;;2.13;;
35150;SDS011;55720;51.972;4.624;2023-03-17T07:24:06;8.27;;;2.22;;
35150;SDS011;55720;51.972;4.624;2023-03-17T07:26:31;4.93;;;2.38;;
35150;SDS011;55720;51.972;4.624;2023-03-17T07:28:57;6.75;;;2.63;;
35150;SDS011;55720;51.972;4.624;2023-03-17T07:31:25;5.07;;;2.70;;
35150;SDS011;55720;51.972;4.624;2023-03-17T07:33:50;7.43;;;2.90;;
35150;SDS011;55720;51.972;4.624;2023-03-17T07:36:16;4.63;;;2.63;;
35150;SDS011;55720;51.972;4.624;2023-03-17T07:38:42;5.85;;;2.70;;
35150;SDS011;55720;51.972;4.624;2023-03-17T07:41:07;6.10;;;2.55;;
35150;SDS011;55720;51.972;4.624;2023-03-17T07:43:34;5.57;;;2.65;;
35150;SDS011;55720;51.972;4.624;2023-03-17T07:46:01;3.63;;;2.60;;
35150;SDS011;55720;51.972;4.624;2023-03-17T07:48:27;4.57;;;2.70;;
35150;SDS011;55720;51.972;4.624;2023-03-17T07:50:54;3.60;;;2.75;;
35150;SDS011;55720;51.972;4.624;2023-03-17T07:53:19;3.58;;;2.53;;
35150;SDS011;55720;51.972;4.624;2023-03-17T07:55:45;3.15;;;2.60;;
35150;SDS011;55720;51.972;4.624;2023-03-17T07:58:10;3.83;;;2.47;;
35150;SDS011;55720;51.972;4.624;2023-03-17T08:00:36;5.43;;;2.33;;
35150;SDS011;55720;51.972;4.624;2023-03-17T08:03:01;5.22;;;3.25;;
35150;SDS011;55720;51.972;4.624;2023-03-17T08:05:26;3.28;;;2.35;;
35150;SDS011;55720;51.972;4.624;2023-03-17T08:07:52;4.85;;;2.25;;
35150;SDS011;55720;51.972;4.624;2023-03-17T08:10:18;3.67;;;2.90;;
35150;SDS011;55720;51.972;4.624;2023-03-17T08:12:43;6.32;;;2.67;;
35150;SDS011;55720;51.972;4.624;2023-03-17T08:15:09;5.88;;;2.25;;
35150;SDS011;55720;51.972;4.624;2023-03-17T08:17:35;5.97;;;2.75;;
35150;SDS011;55720;51.972;4.624;2023-03-17T08:20:01;4.07;;;2.70;;
35150;SDS011;55720;51.972;4.624;2023-03-17T08:22:28;5.05;;;2.63;;
35150;SDS011;55720;51.972;4.624;2023-03-17T08:24:54;4.70;;;2.60;;
35150;SDS011;55720;51.972;4.624;2023-03-17T08:27:20;7.95;;;2.95;;
35150;SDS011;55720;51.972;4.624;2023-03-17T08:29:46;4.60;;;2.60;;
35150;SDS011;55720;51.972;4.624;2023-03-17T08:32:12;6.32;;;2.65;;
35150;SDS011;55720;51.972;4.624;2023-03-17T08:34:38;4.28;;;2.80;;
35150;SDS011;55720;51.972;4.624;2023-03-17T08:37:04;7.80;;;3.10;;
35150;SDS011;55720;51.972;4.624;2023-03-17T08:39:30;6.93;;;3.22;;
35150;SDS011;55720;51.972;4.624;2023-03-17T08:41:56;6.13;;;2.97;;
35150;SDS011;55720;51.972;4.624;2023-03-17T08:44:21;6.25;;;2.80;;
35150;SDS011;55720;51.972;4.624;2023-03-17T08:46:46;4.63;;;2.55;;
35150;SDS011;55720;51.972;4.624;2023-03-17T08:49:13;6.25;;;3.83;;
35150;SDS011;55720;51.972;4.624;2023-03-17T08:51:40;4.00;;;2.53;;
35150;SDS011;55720;51.972;4.624;2023-03-17T08:54:06;5.88;;;2.83;;
35150;SDS011;55720;51.972;4.624;2023-03-17T08:56:32;3.55;;;2.85;;
35150;SDS011;55720;51.972;4.624;2023-03-17T08:58:58;3.25;;;2.50;;
35150;SDS011;55720;51.972;4.624;2023-03-17T09:01:24;5.78;;;2.35;;
35150;SDS011;55720;51.972;4.624;2023-03-17T09:03:51;4.47;;;2.50;;
35150;SDS011;55720;51.972;4.624;2023-03-17T09:06:18;6.18;;;2.47;;
35150;SDS011;55720;51.972;4.624;2023-03-17T09:08:44;7.18;;;2.83;;
35150;SDS011;55720;51.972;4.624;2023-03-17T09:11:14;6.68;;;3.03;;
35150;SDS011;55720;51.972;4.624;2023-03-17T09:13:42;4.63;;;2.85;;
35150;SDS011;55720;51.972;4.624;2023-03-17T09:16:08;4.57;;;2.65;;
35150;SDS011;55720;51.972;4.624;2023-03-17T09:18:34;4.70;;;2.33;;
35150;SDS011;55720;51.972;4.624;2023-03-17T09:21:00;7.78;;;2.40;;
35150;SDS011;55720;51.972;4.624;2023-03-17T09:23:27;4.93;;;2.80;;
35150;SDS011;55720;51.972;4.624;2023-03-17T09:25:52;4.72;;;2.50;;
35150;SDS011;55720;51.972;4.624;2023-03-17T09:28:18;5.88;;;3.30;;
35150;SDS011;55720;51.972;4.624;2023-03-17T09:30:44;7.03;;;3.33;;
35150;SDS011;55720;51.972;4.624;2023-03-17T09:33:10;4.63;;;2.85;;
35150;SDS011;55720;51.972;4.624;2023-03-17T09:35:37;8.45;;;3.00;;
35150;SDS011;55720;51.972;4.624;2023-03-17T09:38:04;3.45;;;2.85;;
35150;SDS011;55720;51.972;4.624;2023-03-17T09:40:31;7.45;;;3.13;;
35150;SDS011;55720;51.972;4.624;2023-03-17T09:43:14;7.93;;;3.20;;
35150;SDS011;55720;51.972;4.624;2023-03-17T09:45:45;5.57;;;2.97;;
35150;SDS011;55720;51.972;4.624;2023-03-17T09:51:05;7.03;;;2.72;;
35150;SDS011;55720;51.972;4.624;2023-03-17T09:53:34;3.80;;;3.00;;
35150;SDS011;55720;51.972;4.624;2023-03-17T09:56:13;6.50;;;3.03;;
35150;SDS011;55720;51.972;4.624;2023-03-17T09:58:41;6.13;;;3.35;;
35150;SDS011;55720;51.972;4.624;2023-03-17T10:01:12;4.78;;;3.10;;
35150;SDS011;55720;51.972;4.624;2023-03-17T10:03:38;5.93;;;3.33;;
35150;SDS011;55720;51.972;4.624;2023-03-17T10:06:11;7.22;;;3.60;;
35150;SDS011;55720;51.972;4.624;2023-03-17T10:08:46;5.38;;;3.42;;
35150;SDS011;55720;51.972;4.624;2023-03-17T10:16:51;5.07;;;3.67;;
35150;SDS011;55720;51.972;4.624;2023-03-17T10:19:29;7.38;;;3.40;;
35150;SDS011;55720;51.972;4.624;2023-03-17T10:22:00;5.97;;;3.42;;
35150;SDS011;55720;51.972;4.624;2023-03-17T10:24:31;6.85;;;3.42;;
35150;SDS011;55720;51.972;4.624;2023-03-17T10:26:59;6.30;;;4.35;;
35150;SDS011;55720;51.972;4.624;2023-03-17T10:29:28;8.20;;;3.58;;
35150;SDS011;55720;51.972;4.624;2023-03-17T10:31:55;7.95;;;3.70;;
35150;SDS011;55720;51.972;4.624;2023-03-17T10:34:31;7.57;;;3.50;;
35150;SDS011;55720;51.972;4.624;2023-03-17T10:39:25;6.82;;;3.60;;
35150;SDS011;55720;51.972;4.624;2023-03-17T10:44:27;4.22;;;3.38;;
35150;SDS011;55720;51.972;4.624;2023-03-17T10:47:02;5.03;;;3.92;;
35150;SDS011;55720;51.972;4.624;2023-03-17T10:49:30;8.55;;;3.72;;
35150;SDS011;55720;51.972;4.624;2023-03-17T10:51:59;6.93;;;4.20;;
35150;SDS011;55720;51.972;4.624;2023-03-17T10:54:32;7.90;;;3.80;;
35150;SDS011;55720;51.972;4.624;2023-03-17T10:57:00;5.50;;;3.60;;
35150;SDS011;55720;51.972;4.624;2023-03-17T10:59:31;7.20;;;4.20;;
35150;SDS011;55720;51.972;4.624;2023-03-17T11:02:05;9.57;;;4.25;;
35150;SDS011;55720;51.972;4.624;2023-03-17T11:04:42;6.05;;;3.75;;
35150;SDS011;55720;51.972;4.624;2023-03-17T11:07:21;9.80;;;3.67;;
35150;SDS011;55720;51.972;4.624;2023-03-17T11:09:56;6.97;;;4.00;;
35150;SDS011;55720;51.972;4.624;2023-03-17T11:15:01;5.55;;;3.92;;
35150;SDS011;55720;51.972;4.624;2023-03-17T11:20:45;5.70;;;3.75;;
35150;SDS011;55720;51.972;4.624;2023-03-17T11:23:22;7.35;;;3.90;;
35150;SDS011;55720;51.972;4.624;2023-03-17T11:32:10;5.80;;;3.72;;
35150;SDS011;55720;51.972;4.624;2023-03-17T11:43:32;8.32;;;4.05;;
35150;SDS011;55720;51.972;4.624;2023-03-17T11:46:24;6.43;;;3.90;;
35150;SDS011;55720;51.972;4.624;2023-03-17T11:48:59;8.05;;;4.47;;
35150;SDS011;55720;51.972;4.624;2023-03-17T12:06:02;7.47;;;3.95;;
35150;SDS011;55720;51.972;4.624;2023-03-17T12:11:19;5.38;;;4.18;;
35150;SDS011;55720;51.972;4.624;2023-03-17T12:13:58;9.50;;;5.30;;
35150;SDS011;55720;51.972;4.624;2023-03-17T12:16:33;6.50;;;4.40;;
35150;SDS011;55720;51.972;4.624;2023-03-17T12:19:49;8.75;;;4.00;;
35150;SDS011;55720;51.972;4.624;2023-03-17T12:24:41;6.85;;;4.40;;
35150;SDS011;55720;51.972;4.624;2023-03-17T12:27:18;8.00;;;4.35;;
35150;SDS011;55720;51.972;4.624;2023-03-17T12:29:50;5.63;;;4.40;;
35150;SDS011;55720;51.972;4.624;2023-03-17T12:32:23;8.60;;;4.43;;
35150;SDS011;55720;51.972;4.624;2023-03-17T12:34:54;6.15;;;4.80;;
35150;SDS011;55720;51.972;4.624;2023-03-17T12:37:21;6.07;;;4.72;;
35150;SDS011;55720;51.972;4.624;2023-03-17T12:39:55;6.20;;;4.63;;
35150;SDS011;55720;51.972;4.624;2023-03-17T12:42:44;5.93;;;4.32;;
35150;SDS011;55720;51.972;4.624;2023-03-17T12:53:52;6.60;;;4.05;;
35150;SDS011;55720;51.972;4.624;2023-03-17T12:56:28;4.70;;;4.05;;
35150;SDS011;55720;51.972;4.624;2023-03-17T12:59:02;7.75;;;4.32;;
35150;SDS011;55720;51.972;4.624;2023-03-17T13:01:31;8.82;;;4.32;;
35150;SDS011;55720;51.972;4.624;2023-03-17T13:17:47;11.30;;;5.00;;
35150;SDS011;55720;51.972;4.624;2023-03-17T13:20:17;7.80;;;4.65;;
35150;SDS011;55720;51.972;4.624;2023-03-17T13:25:36;5.10;;;4.53;;
35150;SDS011;55720;51.972;4.624;2023-03-17T13:28:50;5.70;;;4.85;;
35150;SDS011;55720;51.972;4.624;2023-03-17T13:34:05;10.15;;;5.30;;
35150;SDS011;55720;51.972;4.624;2023-03-17T13:42:13;12.13;;;4.78;;
35150;SDS011;55720;51.972;4.624;2023-03-17T13:44:56;7.57;;;4.03;;
35150;SDS011;55720;51.972;4.624;2023-03-17T13:47:46;6.90;;;4.57;;
35150;SDS011;55720;51.972;4.624;2023-03-17T13:50:14;5.15;;;4.43;;
35150;SDS011;55720;51.972;4.624;2023-03-17T13:52:49;4.38;;;3.97;;
35150;SDS011;55720;51.972;4.624;2023-03-17T13:55:41;9.75;;;4.65;;
35150;SDS011;55720;51.972;4.624;2023-03-17T13:58:15;9.00;;;4.22;;
35150;SDS011;55720;51.972;4.624;2023-03-17T14:00:46;6.43;;;4.38;;
35150;SDS011;55720;51.972;4.624;2023-03-17T14:03:40;6.60;;;4.38;;
35150;SDS011;55720;51.972;4.624;2023-03-17T14:06:15;7.90;;;3.92;;
35150;SDS011;55720;51.972;4.624;2023-03-17T14:09:00;5.53;;;4.13;;
35150;SDS011;55720;51.972;4.624;2023-03-17T14:11:34;11.18;;;4.13;;
35150;SDS011;55720;51.972;4.624;2023-03-17T14:14:13;5.90;;;4.55;;
35150;SDS011;55720;51.972;4.624;2023-03-17T14:16:50;7.50;;;4.38;;
35150;SDS011;55720;51.972;4.624;2023-03-17T14:19:20;5.40;;;4.25;;
35150;SDS011;55720;51.972;4.624;2023-03-17T14:21:51;7.28;;;4.18;;
35150;SDS011;55720;51.972;4.624;2023-03-17T14:24:24;7.03;;;3.95;;
35150;SDS011;55720;51.972;4.624;2023-03-17T14:26:53;13.35;;;4.63;;
35150;SDS011;55720;51.972;4.624;2023-03-17T14:29:24;9.80;;;5.13;;
35150;SDS011;55720;51.972;4.624;2023-03-17T14:32:00;9.05;;;5.03;;
35150;SDS011;55720;51.972;4.624;2023-03-17T14:34:29;8.15;;;4.57;;
35150;SDS011;55720;51.972;4.624;2023-03-17T14:36:58;9.80;;;5.82;;
35150;SDS011;55720;51.972;4.624;2023-03-17T14:39:25;9.00;;;5.28;;
35150;SDS011;55720;51.972;4.624;2023-03-17T14:42:11;7.63;;;4.93;;
35150;SDS011;55720;51.972;4.624;2023-03-17T14:44:39;12.13;;;4.97;;
35150;SDS011;55720;51.972;4.624;2023-03-17T14:47:12;7.03;;;5.57;;
35150;SDS011;55720;51.972;4.624;2023-03-17T14:49:41;10.38;;;5.35;;
35150;SDS011;55720;51.972;4.624;2023-03-17T14:52:15;11.35;;;5.40;;
35150;SDS011;55720;51.972;4.624;2023-03-17T14:54:47;11.20;;;5.75;;
35150;SDS011;55720;51.972;4.624;2023-03-17T14:59:41;10.27;;;5.60;;
35150;SDS011;55720;51.972;4.624;2023-03-17T15:04:47;8.45;;;5.68;;
35150;SDS011;55720;51.972;4.624;2023-03-17T15:07:26;7.88;;;5.15;;
35150;SDS011;55720;51.972;4.624;2023-03-17T15:09:59;12.50;;;5.28;;
35150;SDS011;55720;51.972;4.624;2023-03-17T15:12:28;8.38;;;5.20;;
35150;SDS011;55720;51.972;4.624;2023-03-17T15:15:04;10.43;;;5.82;;
35150;SDS011;55720;51.972;4.624;2023-03-17T15:17:42;9.85;;;5.93;;
35150;SDS011;55720;51.972;4.624;2023-03-17T15:20:16;6.18;;;4.65;;
35150;SDS011;55720;51.972;4.624;2023-03-17T15:22:46;7.43;;;5.10;;
35150;SDS011;55720;51.972;4.624;2023-03-17T15:25:47;10.05;;;5.10;;
35150;SDS011;55720;51.972;4.624;2023-03-17T15:28:15;6.68;;;5.00;;
35150;SDS011;55720;51.972;4.624;2023-03-17T15:30:43;6.82;;;5.03;;
35150;SDS011;55720;51.972;4.624;2023-03-17T15:33:20;6.47;;;4.85;;
35150;SDS011;55720;51.972;4.624;2023-03-17T15:35:52;11.40;;;4.70;;
35150;SDS011;55720;51.972;4.624;2023-03-17T15:38:18;5.90;;;4.38;;
35150;SDS011;55720;51.972;4.624;2023-03-17T15:40:43;10.50;;;5.28;;
35150;SDS011;55720;51.972;4.624;2023-03-17T15:43:13;7.30;;;5.53;;
35150;SDS011;55720;51.972;4.624;2023-03-17T15:45:39;8.98;;;4.97;;
35150;SDS011;55720;51.972;4.624;2023-03-17T15:48:21;16.38;;;5.80;;
35150;SDS011;55720;51.972;4.624;2023-03-17T15:50:49;8.85;;;5.22;;
35150;SDS011;55720;51.972;4.624;2023-03-17T15:53:16;10.27;;;5.25;;
35150;SDS011;55720;51.972;4.624;2023-03-17T15:55:41;16.98;;;7.20;;
35150;SDS011;55720;51.972;4.624;2023-03-17T15:58:07;11.68;;;6.53;;
35150;SDS011;55720;51.972;4.624;2023-03-17T16:00:32;12.77;;;6.05;;
35150;SDS011;55720;51.972;4.624;2023-03-17T16:02:59;12.13;;;6.00;;
35150;SDS011;55720;51.972;4.624;2023-03-17T16:05:31;10.85;;;6.32;;
35150;SDS011;55720;51.972;4.624;2023-03-17T16:07:59;9.88;;;6.20;;
35150;SDS011;55720;51.972;4.624;2023-03-17T16:10:28;11.70;;;5.43;;
35150;SDS011;55720;51.972;4.624;2023-03-17T16:12:55;9.48;;;5.93;;
35150;SDS011;55720;51.972;4.624;2023-03-17T16:15:22;8.02;;;5.10;;
35150;SDS011;55720;51.972;4.624;2023-03-17T16:17:50;8.48;;;5.22;;
35150;SDS011;55720;51.972;4.624;2023-03-17T16:20:19;7.18;;;5.43;;
35150;SDS011;55720;51.972;4.624;2023-03-17T16:23:11;9.38;;;5.70;;
35150;SDS011;55720;51.972;4.624;2023-03-17T16:25:40;9.50;;;6.32;;
35150;SDS011;55720;51.972;4.624;2023-03-17T16:28:12;9.05;;;5.55;;
35150;SDS011;55720;51.972;4.624;2023-03-17T16:30:40;12.02;;;5.90;;
35150;SDS011;55720;51.972;4.624;2023-03-17T16:33:19;10.43;;;5.78;;
35150;SDS011;55720;51.972;4.624;2023-03-17T16:35:46;9.18;;;5.90;;
35150;SDS011;55720;51.972;4.624;2023-03-17T16:38:14;9.80;;;6.68;;